Time;durP1;ratioP1;P1;durP2;ratioP2;P2;SDS_P1;SDS_P2;PMS_P1;PMS_P2;Temp;Humidity;BMP_temperature;BMP_pressure;BME280_temperature;BME280_humidity;BME280_pressure;Samples;Min_cycle;Max_cycle;Signal;HPM_P1;HPM_P2
2022/11/01 00:01:21;;;;;;;;;;;;;;;21.72;68.59;101107.06;4911742;29;3323;-58
2022/11/01 00:03:47;;;;;;;;;;;;;;;21.76;67.93;101107.22;4908444;29;3176;-57
2022/11/01 00:06:13;;;;;;;;;;;;;;;21.74;68.27;101101.38;4916938;29;2986;-56
2022/11/01 00:08:40;;;;;;;;;;;;;;;21.74;68.27;101092.72;4912333;29;3011;-56
2022/11/01 00:11:07;;;;;;;;;;;;;;;21.73;68.31;101091.22;4913291;29;2995;-58
2022/11/01 00:13:33;;;;;;;;;;;;;;;21.73;68.48;101097.72;4913193;29;3019;-56
2022/11/01 00:15:59;;;;;;;;;;;;;;;21.75;67.79;101094.19;4917154;29;3066;-58
2022/11/01 00:18:26;;;;;;;;;;;;;;;21.77;67.67;101107.97;4915990;28;3047;-56
2022/11/01 00:20:52;;;;;;;;;;;;;;;21.74;67.84;101122.28;4919165;28;2791;-59
2022/11/01 00:23:18;;;;;;;;;;;;;;;21.72;68.25;101119.31;4914912;29;3606;-58
2022/11/01 00:25:45;;;;;;;;;;;;;;;21.74;68.25;101105.00;4913028;29;3050;-59
2022/11/01 00:28:11;;;;;;;;;;;;;;;21.73;67.85;101111.41;4919455;29;3040;-59
2022/11/01 00:30:38;;;;;;;;;;;;;;;21.72;68.36;101113.56;4920285;29;3080;-59
2022/11/01 00:33:04;;;;;;;;;;;;;;;21.71;67.80;101112.03;4921427;29;3258;-59
2022/11/01 00:35:30;;;;;;;;;;;;;;;21.73;67.77;101103.50;4921328;29;3610;-58
2022/11/01 00:37:57;;;;;;;;;;;;;;;21.70;68.19;101098.31;4921075;28;3112;-57
2022/11/01 00:40:23;;;;;;;;;;;;;;;21.71;68.14;101094.75;4918785;28;3082;-59
2022/11/01 00:42:50;;;;;;;;;;;;;;;21.72;68.26;101087.59;4915829;29;3037;-56
2022/11/01 00:45:16;;;;;;;;;;;;;;;21.70;67.87;101075.25;4922828;28;3400;-59
2022/11/01 00:47:42;;;;;;;;;;;;;;;21.71;68.11;101083.22;4923504;28;2973;-58
2022/11/01 00:50:09;;;;;;;;;;;;;;;21.71;67.70;101068.06;4907765;29;3172;-58
2022/11/01 00:52:35;;;;;;;;;;;;;;;21.71;67.89;101080.34;4916155;29;2968;-59
2022/11/01 00:55:01;;;;;;;;;;;;;;;21.66;67.88;101070.03;4919008;29;2943;-56
2022/11/01 00:57:28;;;;;;;;;;;;;;;21.69;68.21;101062.22;4917812;29;3047;-58
2022/11/01 00:59:54;;;;;;;;;;;;;;;21.65;68.03;101062.81;4920072;29;2123;-57
2022/11/01 01:02:20;;;;;;;;;;;;;;;21.66;68.09;101058.50;4920064;29;3222;-59
2022/11/01 01:04:48;;;;;;;;;;;;;;;21.66;68.03;101058.50;4916301;28;3126;-57
2022/11/01 01:07:14;;;;;;;;;;;;;;;21.67;68.02;101048.47;4917968;29;3436;-59
2022/11/01 01:09:40;;;;;;;;;;;;;;;21.67;67.76;101054.25;4919345;29;3061;-58
2022/11/01 01:12:06;;;;;;;;;;;;;;;21.70;68.07;101047.16;4916850;29;2951;-56
2022/11/01 01:14:33;;;;;;;;;;;;;;;21.70;68.07;101057.97;4920244;29;2956;-58
2022/11/01 01:16:59;;;;;;;;;;;;;;;21.69;67.70;101056.44;4920096;28;3107;-58
2022/11/01 01:19:27;;;;;;;;;;;;;;;21.70;67.86;101069.50;4917251;29;2951;-58
2022/11/01 01:21:53;;;;;;;;;;;;;;;21.67;68.01;101074.41;4911730;29;3442;-58
2022/11/01 01:24:19;;;;;;;;;;;;;;;21.67;68.08;101083.06;4913978;28;3041;-57
2022/11/01 01:26:45;;;;;;;;;;;;;;;21.66;67.92;101084.44;4914045;29;2982;-57
2022/11/01 01:29:12;;;;;;;;;;;;;;;21.66;67.96;101072.91;4918728;29;3044;-59
2022/11/01 01:31:38;;;;;;;;;;;;;;;21.65;67.71;101080.09;4919373;29;2922;-58
2022/11/01 01:34:05;;;;;;;;;;;;;;;21.67;67.50;101077.31;4920569;29;3006;-57
2022/11/01 01:36:31;;;;;;;;;;;;;;;21.65;68.11;101068.56;4915886;29;3527;-57
2022/11/01 01:38:57;;;;;;;;;;;;;;;21.65;67.89;101059.19;4914743;29;2886;-58
2022/11/01 01:44:27;;;;;;;;;;;;;;;21.61;67.81;101039.56;4918845;29;3009;-58
2022/11/01 01:46:53;;;;;;;;;;;;;;;21.62;68.15;101029.50;4917844;29;3509;-57
2022/11/01 01:49:20;;;;;;;;;;;;;;;21.64;67.59;101026.72;4934201;28;3042;-57
2022/11/01 01:51:46;;;;;;;;;;;;;;;21.63;67.90;101013.72;4919252;29;3029;-58
2022/11/01 01:54:12;;;;;;;;;;;;;;;21.62;67.98;101017.97;4932349;28;3336;-55
2022/11/01 01:56:39;;;;;;;;;;;;;;;21.62;68.18;101009.34;4912825;29;3415;-59
2022/11/01 01:59:05;;;;;;;;;;;;;;;21.62;68.08;101006.44;4917034;29;2749;-57
2022/11/01 02:01:32;;;;;;;;;;;;;;;21.62;68.09;101005.72;4918452;29;2934;-59
2022/11/01 02:03:59;;;;;;;;;;;;;;;21.62;67.90;100994.94;4915597;29;3324;-58
2022/11/01 02:06:25;;;;;;;;;;;;;;;21.64;67.85;100991.41;4914825;29;2987;-56
2022/11/01 02:08:52;;;;;;;;;;;;;;;21.63;67.98;100987.78;4920417;29;2977;-56
2022/11/01 02:11:18;;;;;;;;;;;;;;;21.61;67.65;100981.94;4935343;28;3234;-57
2022/11/01 02:13:45;;;;;;;;;;;;;;;21.60;67.94;100974.69;4924850;28;3686;-57
2022/11/01 02:16:13;;;;;;;;;;;;;;;21.61;67.66;100979.03;4916307;29;3236;-58
2022/11/01 02:18:40;;;;;;;;;;;;;;;21.61;67.71;100976.16;4928247;28;3151;-57
2022/11/01 02:21:17;;;;;;;;;;;;;;;21.61;67.87;100973.28;4911508;29;3002;-58
2022/11/01 02:23:43;;;;;;;;;;;;;;;21.58;68.08;100971.72;4914425;29;3072;-57
2022/11/01 02:26:18;;;;;;;;;;;;;;;21.58;68.09;100963.06;4921214;28;3161;-58
2022/11/01 02:28:49;;;;;;;;;;;;;;;21.52;68.26;100968.56;4915695;29;3374;-58
2022/11/01 02:31:25;;;;;;;;;;;;;;;21.55;68.40;100958.59;4925068;28;3575;-56
2022/11/01 02:33:53;;;;;;;;;;;;;;;21.56;68.23;100951.47;4911295;29;3041;-58
2022/11/01 02:36:46;;;;;;;;;;;;;;;21.56;68.23;100945.69;4917382;29;2868;-57
2022/11/01 02:39:19;;;;;;;;;;;;;;;21.57;67.89;100955.81;4917800;29;3001;-57
2022/11/01 02:41:50;;;;;;;;;;;;;;;21.58;67.71;100954.44;4931902;28;3119;-58
2022/11/01 02:44:17;;;;;;;;;;;;;;;21.57;67.60;100955.81;4916024;29;2989;-56
2022/11/01 02:47:02;;;;;;;;;;;;;;;21.58;67.97;100956.53;4913638;28;2979;-58
2022/11/01 02:49:33;;;;;;;;;;;;;;;21.57;67.97;100950.06;4912549;29;2923;-58
2022/11/01 02:51:59;;;;;;;;;;;;;;;21.60;67.47;100950.88;4916575;29;3010;-57
2022/11/01 02:54:46;;;;;;;;;;;;;;;21.58;67.88;100960.19;4929112;28;3507;-56
2022/11/01 02:57:25;;;;;;;;;;;;;;;21.53;67.96;100965.03;4907855;29;2983;-58
2022/11/01 02:59:51;;;;;;;;;;;;;;;21.55;68.16;100967.25;4926554;28;3101;-55
2022/11/01 03:02:20;;;;;;;;;;;;;;;21.56;67.62;100973.78;4916847;29;3153;-56
2022/11/01 03:04:46;;;;;;;;;;;;;;;21.54;68.21;100968.66;4930502;28;3183;-58
2022/11/01 03:07:12;;;;;;;;;;;;;;;21.54;67.80;100966.50;4915953;29;3120;-58
2022/11/01 03:09:39;;;;;;;;;;;;;;;21.54;67.80;100971.53;4926663;28;3197;-58
2022/11/01 03:12:05;;;;;;;;;;;;;;;21.53;68.36;100970.03;4930962;28;3044;-57
2022/11/01 03:14:38;;;;;;;;;;;;;;;21.55;68.00;100970.13;4930196;28;3315;-57
2022/11/01 03:17:06;;;;;;;;;;;;;;;21.54;68.05;100971.53;4931418;28;3014;-58
2022/11/01 03:19:49;;;;;;;;;;;;;;;21.50;68.09;100969.22;4911813;29;3049;-58
2022/11/01 03:22:34;;;;;;;;;;;;;;;21.52;67.92;100974.31;4910585;29;3036;-56
2022/11/01 03:28:07;;;;;;;;;;;;;;;21.53;68.02;100978.69;4916394;29;3076;-57
2022/11/01 03:30:33;;;;;;;;;;;;;;;21.49;67.98;100970.63;4927895;28;2992;-57
2022/11/01 03:32:59;;;;;;;;;;;;;;;21.50;68.02;100971.34;4915056;29;3068;-58
2022/11/01 03:35:27;;;;;;;;;;;;;;;21.45;68.42;100975.47;4912707;29;2997;-58
2022/11/01 03:37:55;;;;;;;;;;;;;;;21.42;68.11;100971.00;4918099;29;3047;-57
2022/11/01 03:40:22;;;;;;;;;;;;;;;21.48;67.91;100968.38;4911018;28;3005;-57
2022/11/01 03:42:49;;;;;;;;;;;;;;;21.51;67.80;100964.22;4928913;28;3060;-59
2022/11/01 03:45:15;;;;;;;;;;;;;;;21.54;67.84;100954.25;4909810;29;3051;-59
2022/11/01 03:47:42;;;;;;;;;;;;;;;21.58;67.84;100942.91;4916464;29;3036;-58
2022/11/01 03:50:15;;;;;;;;;;;;;;;21.61;67.57;100950.22;4912640;28;2935;-55
2022/11/01 03:52:42;;;;;;;;;;;;;;;21.65;67.69;100941.75;4919316;29;2943;-57
2022/11/01 03:55:17;;;;;;;;;;;;;;;21.66;68.12;100945.38;4918822;28;3089;-58
2022/11/01 03:57:47;;;;;;;;;;;;;;;21.66;68.20;100951.88;4914028;28;2927;-58
2022/11/01 04:00:14;;;;;;;;;;;;;;;21.70;68.03;100942.69;4916232;28;2964;-58
2022/11/01 04:02:42;;;;;;;;;;;;;;;21.65;68.34;100947.53;4918245;28;3068;-57
2022/11/01 04:05:09;;;;;;;;;;;;;;;21.66;68.47;100937.47;4920518;29;2959;-58
2022/11/01 04:07:35;;;;;;;;;;;;;;;21.65;68.40;100947.53;4918990;29;3037;-57
2022/11/01 04:10:01;;;;;;;;;;;;;;;21.67;68.33;100943.97;4916465;29;3308;-58
2022/11/01 04:12:28;;;;;;;;;;;;;;;21.70;67.83;100959.97;4917355;28;3066;-57
2022/11/01 04:20:33;;;;;;;;;;;;;;;21.68;68.08;100977.91;4917045;28;3372;-58
2022/11/01 04:23:00;;;;;;;;;;;;;;;21.67;68.35;100967.78;4932135;28;3007;-58
2022/11/01 04:25:27;;;;;;;;;;;;;;;21.70;68.13;100972.22;4926512;28;2931;-58
2022/11/01 04:27:56;;;;;;;;;;;;;;;21.64;68.33;100954.66;4918434;28;3111;-58
2022/11/01 04:30:23;;;;;;;;;;;;;;;21.64;68.45;100951.78;4919745;29;3235;-57
2022/11/01 04:32:49;;;;;;;;;;;;;;;21.67;67.80;100947.63;4914373;29;3284;-57
2022/11/01 04:35:15;;;;;;;;;;;;;;;21.69;67.70;100959.22;4918715;29;3129;-58
2022/11/01 04:37:42;;;;;;;;;;;;;;;21.68;68.00;100957.72;4921679;28;3079;-57
2022/11/01 04:40:08;;;;;;;;;;;;;;;21.69;68.11;100958.47;4916242;28;3006;-57
2022/11/01 04:42:35;;;;;;;;;;;;;;;21.71;67.88;100965.06;4922311;29;2950;-57
2022/11/01 04:45:01;;;;;;;;;;;;;;;21.71;67.94;100958.56;4917286;29;3019;-58
2022/11/01 04:47:28;;;;;;;;;;;;;;;21.66;68.01;100954.75;4919384;29;3077;-58
2022/11/01 04:49:54;;;;;;;;;;;;;;;21.65;67.94;100936.00;4917444;29;3172;-58
2022/11/01 04:52:20;;;;;;;;;;;;;;;21.66;67.77;100942.50;4920093;29;2919;-57
2022/11/01 04:54:47;;;;;;;;;;;;;;;21.65;68.25;100944.66;4915067;29;3583;-58
2022/11/01 04:57:23;;;;;;;;;;;;;;;21.63;68.42;100944.56;4916017;29;3126;-56
2022/11/01 04:59:52;;;;;;;;;;;;;;;21.64;68.21;100939.53;4914042;28;3068;-57
2022/11/01 05:02:19;;;;;;;;;;;;;;;21.65;67.96;100929.50;4916975;28;3205;-58
2022/11/01 05:04:45;;;;;;;;;;;;;;;21.64;67.82;100922.97;4918380;29;3120;-57
2022/11/01 05:07:12;;;;;;;;;;;;;;;21.63;68.08;100917.88;4917701;29;2931;-58
2022/11/01 05:09:38;;;;;;;;;;;;;;;21.62;67.92;100899.09;4918898;28;2983;-58
2022/11/01 05:12:05;;;;;;;;;;;;;;;21.61;68.14;100883.94;4911953;29;3369;-58
2022/11/01 05:14:31;;;;;;;;;;;;;;;21.59;68.41;100918.44;4919773;29;3073;-63
2022/11/01 05:16:57;;;;;;;;;;;;;;;21.60;67.89;100899.78;4915400;28;3091;-63
2022/11/01 05:19:24;;;;;;;;;;;;;;;21.58;68.66;100898.91;4921534;29;3074;-63
2022/11/01 05:21:50;;;;;;;;;;;;;;;21.57;68.48;100895.31;4919391;29;2966;-63
2022/11/01 05:24:16;;;;;;;;;;;;;;;21.59;68.32;100889.63;4920619;29;3106;-63
2022/11/01 05:26:43;;;;;;;;;;;;;;;21.58;68.34;100891.03;4912154;29;3049;-63
2022/11/01 05:29:09;;;;;;;;;;;;;;;21.57;68.09;100895.31;4918948;29;3230;-63
2022/11/01 05:31:55;;;;;;;;;;;;;;;21.53;68.79;100895.13;4917576;28;3085;-63
2022/11/01 05:34:22;;;;;;;;;;;;;;;21.53;68.80;100900.88;4915905;29;3124;-63
2022/11/01 05:36:48;;;;;;;;;;;;;;;21.53;68.73;100895.13;4915385;29;3083;-64
2022/11/01 05:39:14;;;;;;;;;;;;;;;21.54;68.24;100913.91;4915151;29;3357;-63
2022/11/01 05:41:41;;;;;;;;;;;;;;;21.57;67.86;100912.59;4916496;29;3072;-63
2022/11/01 05:44:07;;;;;;;;;;;;;;;21.58;68.33;100893.91;4916005;29;3008;-60
2022/11/01 05:46:33;;;;;;;;;;;;;;;21.25;67.56;100912.66;4919716;29;2983;-63
2022/11/01 05:49:00;;;;;;;;;;;;;;;21.38;67.04;100925.44;4912051;28;2947;-62
2022/11/01 05:51:26;;;;;;;;;;;;;;;21.53;67.02;100941.22;4917293;29;3273;-65
2022/11/01 05:53:52;;;;;;;;;;;;;;;21.81;68.22;100944.59;4915483;28;3100;-67
2022/11/01 05:56:19;;;;;;;;;;;;;;;21.96;68.68;100932.22;4917533;29;2164;-66
2022/11/01 05:58:45;;;;;;;;;;;;;;;22.03;67.54;100924.56;4915715;28;4338;-60
2022/11/01 06:01:11;;;;;;;;;;;;;;;21.98;67.03;100928.69;4916238;29;3904;-62
2022/11/01 06:03:38;;;;;;;;;;;;;;;21.96;67.35;100928.59;4921841;29;2924;-63
2022/11/01 06:06:04;;;;;;;;;;;;;;;21.90;67.71;100917.56;4916457;28;2915;-60
2022/11/01 06:08:31;;;;;;;;;;;;;;;21.87;67.49;100924.63;4915769;28;3134;-61
2022/11/01 06:11:01;;;;;;;;;;;;;;;21.84;68.17;100922.34;4921958;29;2938;-63
2022/11/01 06:13:28;;;;;;;;;;;;;;;21.82;67.92;100897.06;4927464;29;3022;-62
2022/11/01 06:15:58;;;;;;;;;;;;;;;21.78;68.62;100896.16;4915032;29;2984;-61
2022/11/01 06:18:25;;;;;;;;;;;;;;;21.81;68.18;100906.38;4917858;29;2797;-62
2022/11/01 06:20:51;;;;;;;;;;;;;;;21.74;68.58;100909.00;4918432;29;2967;-62
2022/11/01 06:23:17;;;;;;;;;;;;;;;21.74;68.24;100911.88;4912815;29;2951;-63
2022/11/01 06:25:44;;;;;;;;;;;;;;;21.84;67.76;100916.59;4914251;29;3049;-63
2022/11/01 06:28:10;;;;;;;;;;;;;;;22.03;67.20;100912.28;4920932;29;2851;-63
2022/11/01 06:30:40;;;;;;;;;;;;;;;22.03;67.07;100920.94;4916066;28;3001;-63
2022/11/01 06:33:08;;;;;;;;;;;;;;;21.98;67.34;100919.31;4913748;28;3392;-63
2022/11/01 06:35:34;;;;;;;;;;;;;;;22.03;66.98;100927.44;4914687;29;3684;-64
2022/11/01 06:38:05;;;;;;;;;;;;;;;22.12;66.72;100932.13;4919269;29;3109;-62
2022/11/01 06:40:35;;;;;;;;;;;;;;;22.14;66.47;100931.50;4915890;29;2983;-58
2022/11/01 06:43:02;;;;;;;;;;;;;;;22.18;66.21;100917.97;4918852;28;2963;-66
2022/11/01 06:45:29;;;;;;;;;;;;;;;22.19;66.30;100930.25;4921162;29;3043;-66
2022/11/01 06:47:55;;;;;;;;;;;;;;;22.15;66.22;100915.66;4914600;29;3364;-66
2022/11/01 06:50:22;;;;;;;;;;;;;;;22.22;65.86;100919.56;4920050;28;3230;-66
2022/11/01 06:52:48;;;;;;;;;;;;;;;22.26;65.62;100926.22;4916852;29;3617;-67
2022/11/01 06:55:14;;;;;;;;;;;;;;;22.27;65.94;100927.72;4911055;29;3272;-59
2022/11/01 06:57:41;;;;;;;;;;;;;;;22.00;66.28;100937.44;4913911;29;2974;-54
2022/11/01 07:00:08;;;;;;;;;;;;;;;22.08;66.79;100940.66;4917636;29;3088;-60
2022/11/01 07:02:34;;;;;;;;;;;;;;;21.90;67.11;100928.38;4906095;28;4502;-59
2022/11/01 07:05:01;;;;;;;;;;;;;;;21.83;67.37;100938.16;4913227;29;3546;-60
2022/11/01 07:07:27;;;;;;;;;;;;;;;21.79;67.18;100935.13;4914118;29;3083;-59
2022/11/01 07:09:53;;;;;;;;;;;;;;;21.78;66.83;100936.50;4915536;29;2856;-59
2022/11/01 07:12:20;;;;;;;;;;;;;;;21.81;66.95;100944.59;4913327;29;3052;-59
2022/11/01 07:14:46;;;;;;;;;;;;;;;21.78;66.92;100959.56;4918164;29;2551;-59
2022/11/01 07:17:12;;;;;;;;;;;;;;;21.79;66.93;100949.53;4922895;29;3017;-59
2022/11/01 07:19:39;;;;;;;;;;;;;;;21.77;66.92;100940.78;4918237;29;2995;-59
2022/11/01 07:22:05;;;;;;;;;;;;;;;21.78;66.83;100953.78;4913903;29;3038;-59
2022/11/01 07:24:31;;;;;;;;;;;;;;;21.79;67.35;100961.06;4913866;29;3357;-60
2022/11/01 07:26:58;;;;;;;;;;;;;;;21.95;66.98;100973.25;4911473;29;4498;-55
2022/11/01 07:29:24;;;;;;;;;;;;;;;22.04;67.31;100983.00;4912616;29;3499;-58
2022/11/01 07:31:50;;;;;;;;;;;;;;;22.26;67.62;100989.69;4913884;28;3354;-58
2022/11/01 07:34:17;;;;;;;;;;;;;;;22.33;67.25;100979.13;4914988;29;2914;-60
2022/11/01 07:36:43;;;;;;;;;;;;;;;22.15;66.59;100991.41;4921007;28;2864;-60
2022/11/01 07:39:09;;;;;;;;;;;;;;;22.21;67.29;100993.81;4929588;28;3073;-56
2022/11/01 07:41:36;;;;;;;;;;;;;;;22.27;66.77;101020.03;4912549;29;3098;-54
2022/11/01 07:44:02;;;;;;;;;;;;;;;22.10;66.83;101027.22;4917284;29;3034;-55
2022/11/01 07:46:29;;;;;;;;;;;;;;;21.97;67.17;101013.72;4920018;29;2967;-54
2022/11/01 07:48:56;;;;;;;;;;;;;;;21.93;67.95;101007.78;4914903;28;2976;-52
2022/11/01 07:51:22;;;;;;;;;;;;;;;21.89;68.25;101010.47;4921809;29;3049;-56
2022/11/01 07:53:48;;;;;;;;;;;;;;;21.88;68.15;101009.75;4915481;29;3138;-56
2022/11/01 07:56:15;;;;;;;;;;;;;;;21.92;67.71;101000.50;4920156;29;2630;-59
2022/11/01 07:58:42;;;;;;;;;;;;;;;21.86;68.31;100991.63;4919805;29;2991;-59
2022/11/01 08:01:09;;;;;;;;;;;;;;;21.85;68.38;100993.00;4912897;29;3503;-59
2022/11/01 08:03:36;;;;;;;;;;;;;;;21.89;68.53;101016.25;4916373;28;3085;-60
2022/11/01 08:06:02;;;;;;;;;;;;;;;21.83;68.42;100999.44;4918865;29;3624;-60
2022/11/01 08:08:28;;;;;;;;;;;;;;;21.85;68.43;100998.78;4920976;29;3147;-60
2022/11/01 08:10:54;;;;;;;;;;;;;;;21.81;68.63;101007.25;4922309;29;2910;-59
2022/11/01 08:13:21;;;;;;;;;;;;;;;21.82;68.69;101000.09;4920569;29;3015;-60
2022/11/01 08:15:48;;;;;;;;;;;;;;;21.84;68.39;100994.41;4918521;29;2955;-59
2022/11/01 08:18:15;;;;;;;;;;;;;;;21.83;68.25;100982.16;4915600;29;2935;-56
2022/11/01 08:20:41;;;;;;;;;;;;;;;21.84;68.21;101003.06;4916989;28;3038;-55
2022/11/01 08:23:07;;;;;;;;;;;;;;;21.90;67.99;101000.44;4910564;28;4375;-60
2022/11/01 08:25:34;;;;;;;;;;;;;;;21.93;68.42;101022.19;4915472;28;3537;-63
2022/11/01 08:28:04;;;;;;;;;;;;;;;21.69;66.59;101016.09;4918881;29;3606;-61
2022/11/01 08:30:30;;;;;;;;;;;;;;;21.63;65.55;101007.94;4914643;29;2903;-61
2022/11/01 08:33:00;;;;;;;;;;;;;;;21.74;66.16;101021.41;4917411;28;3054;-62
2022/11/01 08:35:27;;;;;;;;;;;;;;;21.79;66.39;101007.19;4919291;29;2450;-62
2022/11/01 08:37:53;;;;;;;;;;;;;;;21.82;66.62;101011.63;4918739;28;3053;-62
2022/11/01 08:40:22;;;;;;;;;;;;;;;21.82;66.78;101005.84;4922482;29;2899;-62
2022/11/01 08:42:49;;;;;;;;;;;;;;;21.81;66.74;101018.78;4912308;29;3574;-62
2022/11/01 08:45:15;;;;;;;;;;;;;;;21.82;67.05;101011.63;4916768;29;3368;-62
2022/11/01 08:47:42;;;;;;;;;;;;;;;21.81;67.32;101010.16;4918133;29;2855;-61
2022/11/01 08:50:08;;;;;;;;;;;;;;;21.80;67.13;101015.16;4920555;29;2919;-61
2022/11/01 08:52:36;;;;;;;;;;;;;;;21.81;67.23;101015.91;4914506;29;3036;-61
2022/11/01 08:55:03;;;;;;;;;;;;;;;21.80;67.53;101025.94;4917830;29;3016;-61
2022/11/01 08:57:29;;;;;;;;;;;;;;;21.80;67.20;101005.78;4923484;29;3026;-61
2022/11/01 08:59:55;;;;;;;;;;;;;;;21.82;67.35;101011.63;4921550;28;2915;-61
2022/11/01 09:02:22;;;;;;;;;;;;;;;21.80;67.52;101009.38;4918600;29;3148;-61
2022/11/01 09:04:48;;;;;;;;;;;;;;;21.84;66.85;101026.13;4920692;28;2677;-61
2022/11/01 09:07:14;;;;;;;;;;;;;;;21.84;67.61;101017.47;4917535;29;3073;-61
2022/11/01 09:09:41;;;;;;;;;;;;;;;21.85;67.59;101018.94;4919604;29;3015;-61
2022/11/01 09:12:07;;;;;;;;;;;;;;;21.84;67.83;101006.69;4915587;29;3449;-61
2022/11/01 09:14:39;;;;;;;;;;;;;;;21.88;67.41;101000.34;4919253;29;3077;-61
2022/11/01 09:17:05;;;;;;;;;;;;;;;21.87;67.51;101011.13;4919744;29;3655;-61
2022/11/01 09:19:32;;;;;;;;;;;;;;;21.88;67.48;100998.22;4918824;29;3035;-62
2022/11/01 09:21:58;;;;;;;;;;;;;;;21.88;67.85;100997.47;4918731;29;3098;-61
2022/11/01 09:24:24;;;;;;;;;;;;;;;21.85;67.75;100984.34;4917232;28;2934;-61
2022/11/01 09:26:51;;;;;;;;;;;;;;;21.88;67.74;100992.44;4920549;29;2629;-61
2022/11/01 09:29:17;;;;;;;;;;;;;;;21.87;67.73;100998.84;4919806;29;2971;-62
2022/11/01 09:31:44;;;;;;;;;;;;;;;21.82;67.83;101023.88;4916266;29;3485;-62
2022/11/01 09:34:10;;;;;;;;;;;;;;;21.86;67.86;101023.34;4911248;28;3107;-62
2022/11/01 09:36:37;;;;;;;;;;;;;;;21.86;67.63;101031.97;4914323;28;2985;-62
2022/11/01 09:39:03;;;;;;;;;;;;;;;21.81;67.88;101036.09;4918882;29;3625;-61
2022/11/01 09:41:34;;;;;;;;;;;;;;;21.77;67.95;101038.78;4918429;29;2860;-61
2022/11/01 09:44:01;;;;;;;;;;;;;;;21.77;68.23;101047.44;4913784;29;2974;-61
2022/11/01 09:46:30;;;;;;;;;;;;;;;21.78;68.12;101052.53;4917401;28;3063;-61
2022/11/01 09:48:57;;;;;;;;;;;;;;;21.78;68.21;101043.16;4918332;29;2995;-61
2022/11/01 09:51:24;;;;;;;;;;;;;;;21.76;68.24;101043.78;4909533;29;2888;-61
2022/11/01 09:53:51;;;;;;;;;;;;;;;21.84;67.78;101052.06;4920576;29;2456;-62
2022/11/01 09:56:23;;;;;;;;;;;;;;;21.84;67.86;101049.94;4917237;29;3056;-62
2022/11/01 09:59:08;;;;;;;;;;;;;;;21.84;67.74;101058.56;4917083;29;2852;-61
2022/11/01 10:01:47;;;;;;;;;;;;;;;21.85;68.02;101056.44;4917011;29;3084;-61
2022/11/01 10:04:20;;;;;;;;;;;;;;;21.84;67.70;101043.41;4916149;29;3042;-61
2022/11/01 10:07:10;;;;;;;;;;;;;;;21.84;67.65;101060.72;4910877;29;3056;-61
2022/11/01 10:09:40;;;;;;;;;;;;;;;21.88;67.35;101060.91;4915909;29;3049;-61
2022/11/01 10:12:09;;;;;;;;;;;;;;;21.85;67.86;101044.91;4932320;28;2983;-61
2022/11/01 10:14:53;;;;;;;;;;;;;;;21.83;68.33;101041.91;4914206;28;3009;-61
2022/11/01 10:17:23;;;;;;;;;;;;;;;21.82;68.48;101029.66;4932178;28;2852;-61
2022/11/01 10:19:59;;;;;;;;;;;;;;;21.80;68.81;101031.72;5087667;27;2924;-62
2022/11/01 10:22:32;;;;;;;;;;;;;;;21.81;68.44;101033.94;5083664;28;3180;-61
2022/11/01 10:25:06;;;;;;;;;;;;;;;21.81;68.64;101021.69;5083315;28;3013;-61
2022/11/01 10:27:42;;;;;;;;;;;;;;;21.79;68.62;101027.34;5088439;28;1700;-61
2022/11/01 10:30:13;;;;;;;;;;;;;;;21.82;68.70;101040.44;5082448;28;2785;-61
2022/11/01 10:32:39;;;;;;;;;;;;;;;21.84;67.85;101052.06;5074756;28;2991;-63
2022/11/01 10:35:11;;;;;;;;;;;;;;;21.88;67.92;101066.66;5066496;27;3597;-55
2022/11/01 10:37:41;;;;;;;;;;;;;;;22.00;67.56;101078.72;5067084;28;4248;-68
2022/11/01 10:40:29;;;;;;;;;;;;;;;22.39;67.22;101083.25;5078579;28;4819;-62
2022/11/01 10:42:55;;;;;;;;;;;;;;;22.55;66.83;101081.03;5079446;28;3199;-64
2022/11/01 10:45:22;;;;;;;;;;;;;;;22.65;66.60;101079.97;5081577;28;3185;-62
2022/11/01 10:47:52;;;;;;;;;;;;;;;22.64;66.74;101072.72;5076405;28;3138;-62
2022/11/01 10:50:23;;;;;;;;;;;;;;;22.72;66.98;101073.03;5074303;28;3064;-63
2022/11/01 10:53:02;;;;;;;;;;;;;;;22.73;66.93;101075.25;5067251;28;3041;-62
2022/11/01 10:55:30;;;;;;;;;;;;;;;22.73;66.87;101068.75;5077118;28;3031;-64
2022/11/01 10:58:13;;;;;;;;;;;;;;;22.85;66.69;101075.00;5078489;28;3134;-66
2022/11/01 11:00:40;;;;;;;;;;;;;;;22.87;66.71;101063.53;5064243;28;3130;-66
2022/11/01 11:03:11;;;;;;;;;;;;;;;22.91;66.85;101072.38;5069032;28;3156;-64
2022/11/01 11:05:37;;;;;;;;;;;;;;;22.89;67.04;101089.59;5074991;28;3138;-63
2022/11/01 11:08:06;;;;;;;;;;;;;;;23.09;66.17;101083.16;5068709;28;3177;-62
2022/11/01 11:10:32;;;;;;;;;;;;;;;23.10;66.02;101081.78;5069954;28;3260;-64
2022/11/01 11:12:59;;;;;;;;;;;;;;;23.14;65.75;101088.44;5066127;28;3218;-64
2022/11/01 11:15:32;;;;;;;;;;;;;;;23.09;66.17;101092.59;5074362;28;3107;-63
2022/11/01 11:18:01;;;;;;;;;;;;;;;23.19;66.16;101089.34;5077180;28;3689;-62
2022/11/01 11:20:29;;;;;;;;;;;;;;;23.12;66.17;101093.41;5080103;28;3132;-66
2022/11/01 11:22:55;;;;;;;;;;;;;;;23.17;66.22;101092.16;5072431;28;3013;-64
2022/11/01 11:25:26;;;;;;;;;;;;;;;23.09;66.26;101103.38;5085323;28;3049;-61
2022/11/01 11:27:52;;;;;;;;;;;;;;;23.17;65.99;101090.00;5074150;28;2974;-61
2022/11/01 11:30:25;;;;;;;;;;;;;;;23.09;66.27;101091.81;5063407;28;3398;-66
2022/11/01 11:32:52;;;;;;;;;;;;;;;23.09;66.26;101091.81;5062042;28;4110;-64
2022/11/01 11:35:19;;;;;;;;;;;;;;;23.10;66.14;101099.09;5068356;28;3421;-67
2022/11/01 11:37:49;;;;;;;;;;;;;;;23.14;66.28;101099.25;5065142;28;2937;-71
2022/11/01 11:40:25;;;;;;;;;;;;;;;23.12;66.22;101093.41;5059590;28;2966;-71
2022/11/01 11:42:55;;;;;;;;;;;;;;;22.92;66.68;101094.06;5066575;28;3547;-64
2022/11/01 11:45:26;;;;;;;;;;;;;;;22.94;67.08;101090.50;5056258;28;3288;-65
2022/11/01 11:47:52;;;;;;;;;;;;;;;22.96;66.78;101097.09;5063059;28;3246;-74
2022/11/01 11:50:19;;;;;;;;;;;;;;;22.98;66.60;101091.41;5065116;28;3118;-68
2022/11/01 11:52:49;;;;;;;;;;;;;;;22.96;66.90;101107.91;5059009;28;3287;-66
2022/11/01 11:55:31;;;;;;;;;;;;;;;22.95;67.08;101112.97;5063439;28;3167;-70
2022/11/01 11:57:57;;;;;;;;;;;;;;;22.98;66.77;101105.84;5054344;28;3450;-66
2022/11/01 12:00:23;;;;;;;;;;;;;;;22.95;66.86;101107.19;5068423;28;2998;-70
2022/11/01 12:02:50;;;;;;;;;;;;;;;22.96;66.63;101117.31;5059566;28;3385;-67
2022/11/01 12:05:17;;;;;;;;;;;;;;;23.00;66.91;101111.75;5063329;28;3169;-63
2022/11/01 12:07:44;;;;;;;;;;;;;;;23.10;66.21;101111.38;5054636;28;3304;-63
2022/11/01 12:10:27;;;;;;;;;;;;;;;23.08;66.73;101101.91;5053867;28;3103;-65
2022/11/01 12:12:55;;;;;;;;;;;;;;;23.13;66.10;101097.75;5069997;28;3471;-66
2022/11/01 12:15:31;;;;;;;;;;;;;;;23.22;65.95;101088.00;5060571;28;3022;-62
2022/11/01 12:18:24;;;;;;;;;;;;;;;23.24;66.39;101099.63;5045462;28;3141;-62
2022/11/01 12:20:50;;;;;;;;;;;;;;;23.18;66.29;101110.94;5065900;28;2984;-62
2022/11/01 12:23:25;;;;;;;;;;;;;;;23.22;66.14;101105.34;5059629;28;2892;-63
2022/11/01 12:25:51;;;;;;;;;;;;;;;23.13;66.20;101097.75;5057797;28;3042;-62
2022/11/01 12:28:23;;;;;;;;;;;;;;;23.12;66.04;101104.97;5053082;28;4019;-61
2022/11/01 12:30:50;;;;;;;;;;;;;;;23.14;66.41;101102.16;5050247;28;4741;-64
2022/11/01 12:33:26;;;;;;;;;;;;;;;23.18;66.25;101105.19;5051145;28;3249;-63
2022/11/01 12:35:56;;;;;;;;;;;;;;;23.19;65.98;101112.44;5051581;28;4376;-62
2022/11/01 12:38:27;;;;;;;;;;;;;;;23.20;65.97;101117.56;5052316;28;2966;-62
2022/11/01 12:40:53;;;;;;;;;;;;;;;23.20;65.88;101119.69;5056638;28;3201;-62
2022/11/01 12:43:21;;;;;;;;;;;;;;;23.29;66.03;101112.09;5059486;28;2973;-61
2022/11/01 12:45:50;;;;;;;;;;;;;;;23.72;64.92;101120.22;5059432;28;3143;-60
2022/11/01 12:48:46;;;;;;;;;;;;;;;23.65;64.49;101121.41;5053885;28;2995;-62
2022/11/01 12:51:19;;;;;;;;;;;;;;;23.29;65.77;101121.50;5046712;28;3412;-61
2022/11/01 12:53:58;;;;;;;;;;;;;;;23.07;66.33;101117.75;5048119;28;3094;-62
2022/11/01 12:56:24;;;;;;;;;;;;;;;23.08;66.33;101113.47;5063927;28;3034;-64
2022/11/01 12:58:51;;;;;;;;;;;;;;;23.16;66.52;101125.34;5043569;28;3023;-60
2022/11/01 13:01:23;;;;;;;;;;;;;;;23.18;66.34;101125.41;5046091;28;4479;-62
2022/11/01 13:04:07;;;;;;;;;;;;;;;23.17;66.10;101115.25;5038329;28;3055;-63
2022/11/01 13:06:47;;;;;;;;;;;;;;;23.08;66.54;101113.47;5045690;28;3281;-63